createdAt,value
2018-02-04T00:02:08.767Z,29.20
2018-02-04T00:04:41.818Z,29.21
2018-02-04T00:07:13.379Z,29.02
2018-02-04T00:09:44.685Z,29.07
2018-02-04T00:12:15.764Z,29.33
2018-02-04T00:14:46.763Z,28.83
2018-02-04T00:17:17.695Z,29.03
2018-02-04T00:19:48.842Z,29.05
2018-02-04T00:22:26.769Z,28.84
2018-02-04T00:24:57.889Z,28.81
2018-02-04T00:27:29.040Z,28.73
2018-02-04T00:30:00.158Z,28.51
2018-02-04T00:32:32.195Z,28.43
2018-02-04T00:35:03.717Z,28.51
2018-02-04T00:37:34.784Z,28.52
2018-02-04T00:40:05.751Z,28.45
2018-02-04T00:42:36.895Z,28.51
2018-02-04T00:45:08.235Z,28.20
2018-02-04T00:47:40.917Z,27.95
2018-02-04T00:50:12.110Z,28.11
2018-02-04T00:52:43.297Z,27.91
2018-02-04T00:55:14.420Z,28.01
2018-02-04T00:57:45.381Z,27.57
2018-02-04T01:00:16.980Z,27.64
2018-02-04T01:02:48.094Z,27.82
2018-02-04T01:05:21.040Z,27.38
2018-02-04T01:07:52.663Z,27.15
2018-02-04T01:10:24.000Z,27.06
2018-02-04T01:12:56.532Z,27.13
2018-02-04T01:15:27.456Z,26.84
2018-02-04T01:17:58.253Z,26.61
2018-02-04T01:20:29.832Z,26.60
2018-02-04T01:23:01.849Z,26.45
2018-02-04T01:25:35.471Z,26.37
2018-02-04T01:28:06.162Z,26.26
2018-02-04T01:30:37.689Z,26.02
2018-02-04T01:33:09.034Z,25.95
2018-02-04T01:35:40.574Z,25.89
2018-02-04T01:38:11.493Z,26.08
2018-02-04T01:40:43.255Z,26.62
2018-02-04T01:43:14.805Z,26.88
2018-02-04T01:45:46.120Z,27.30
2018-02-04T01:48:17.096Z,27.41
2018-02-04T01:50:48.204Z,26.77
2018-02-04T01:53:19.198Z,27.07
2018-02-04T01:55:51.074Z,26.20
2018-02-04T01:58:23.532Z,25.54
2018-02-04T02:00:55.193Z,25.49
2018-02-04T02:03:27.378Z,25.41
2018-02-04T02:05:58.384Z,25.47
2018-02-04T02:08:29.982Z,25.32
2018-02-04T02:11:01.579Z,25.51
2018-02-04T02:13:34.704Z,25.56
2018-02-04T02:16:05.847Z,25.50
2018-02-04T02:18:36.863Z,25.55
2018-02-04T02:21:08.112Z,25.44
2018-02-04T02:23:39.855Z,25.31
2018-02-04T02:26:10.807Z,25.20
2018-02-04T02:28:41.937Z,25.30
2018-02-04T02:31:13.284Z,25.18
2018-02-04T02:33:44.428Z,24.98
2018-02-04T02:36:15.594Z,24.83
2018-02-04T02:38:46.949Z,24.87
2018-02-04T02:41:18.267Z,24.77
2018-02-04T02:43:49.634Z,24.67
2018-02-04T02:46:21.018Z,24.66
2018-02-04T02:48:53.137Z,24.69
2018-02-04T02:51:24.069Z,24.66
2018-02-04T02:53:55.632Z,24.85
2018-02-04T02:56:26.783Z,24.78
2018-02-04T02:58:58.022Z,24.44
2018-02-04T03:01:29.571Z,24.61
2018-02-04T03:04:01.279Z,24.61
2018-02-04T03:06:33.044Z,24.24
2018-02-04T03:09:05.760Z,24.18
2018-02-04T03:11:36.949Z,24.05
2018-02-04T03:14:10.944Z,24.34
2018-02-04T03:16:43.338Z,24.45
2018-02-04T03:19:14.499Z,24.43
2018-02-04T03:21:45.808Z,24.32
2018-02-04T03:24:17.188Z,24.16
2018-02-04T03:26:48.417Z,24.06
2018-02-04T03:29:19.442Z,24.23
2018-02-04T03:31:50.580Z,24.19
2018-02-04T03:34:21.924Z,24.17
2018-02-04T03:36:53.480Z,23.79
2018-02-04T03:39:24.417Z,23.88
2018-02-04T03:41:55.406Z,23.61
2018-02-04T03:44:26.631Z,23.72
2018-02-04T03:46:57.645Z,23.72
2018-02-04T03:49:28.680Z,23.54
2018-02-04T03:51:59.875Z,23.50
2018-02-04T03:54:31.027Z,23.47
2018-02-04T03:57:02.116Z,23.53
2018-02-04T03:59:33.214Z,23.66
2018-02-04T04:02:04.393Z,23.45
2018-02-04T04:04:35.741Z,23.63
2018-02-04T04:07:07.507Z,23.58
2018-02-04T04:09:39.365Z,23.64
2018-02-04T04:12:11.736Z,23.69
2018-02-04T04:14:42.980Z,23.71
2018-02-04T04:17:15.477Z,23.42
2018-02-04T04:19:47.150Z,23.17
2018-02-04T04:22:18.873Z,23.17
2018-02-04T04:24:51.061Z,22.90
2018-02-04T04:27:23.318Z,22.94
2018-02-04T04:29:54.690Z,22.83
2018-02-04T04:32:25.992Z,22.84
2018-02-04T04:34:57.339Z,22.74
2018-02-04T04:37:28.993Z,22.34
2018-02-04T04:40:00.471Z,22.61
2018-02-04T04:42:32.225Z,22.34
2018-02-04T04:45:03.921Z,22.25
2018-02-04T04:47:35.470Z,21.99
2018-02-04T04:50:06.452Z,21.71
2018-02-04T04:52:38.114Z,21.80
2018-02-04T04:55:09.176Z,21.22
2018-02-04T04:57:40.156Z,21.54
2018-02-04T05:00:11.312Z,21.29
2018-02-04T05:02:42.644Z,21.55
2018-02-04T05:05:13.279Z,21.77
2018-02-04T05:07:44.477Z,21.23
2018-02-04T05:10:16.496Z,20.87
2018-02-04T05:12:47.564Z,20.99
2018-02-04T05:15:18.537Z,20.90
2018-02-04T05:17:49.909Z,20.78
2018-02-04T05:20:21.320Z,21.49
2018-02-04T05:22:52.667Z,20.90
2018-02-04T05:25:23.999Z,21.31
2018-02-04T05:27:55.058Z,21.53
2018-02-04T05:30:25.977Z,21.19
2018-02-04T05:32:57.183Z,21.12
2018-02-04T05:35:28.066Z,20.61
2018-02-04T05:37:59.913Z,20.85
2018-02-04T05:40:31.165Z,20.28
2018-02-04T05:43:02.167Z,20.41
2018-02-04T05:45:33.873Z,20.57
2018-02-04T05:48:05.064Z,20.00
2018-02-04T05:50:37.266Z,20.26
2018-02-04T05:53:08.605Z,19.77
2018-02-04T05:55:39.968Z,20.38
2018-02-04T05:58:10.702Z,20.14
2018-02-04T06:00:42.061Z,19.84
2018-02-04T06:03:13.195Z,19.85
2018-02-04T06:05:44.076Z,20.40
2018-02-04T06:08:14.876Z,20.40
2018-02-04T06:10:46.022Z,19.92
2018-02-04T06:13:17.157Z,19.50
2018-02-04T06:15:48.269Z,19.70
2018-02-04T06:18:19.036Z,19.72
2018-02-04T06:20:50.614Z,19.94
2018-02-04T06:23:21.729Z,19.91
2018-02-04T06:25:52.803Z,20.80
2018-02-04T06:28:23.918Z,20.09
2018-02-04T06:30:55.156Z,20.15
2018-02-04T06:33:26.240Z,19.88
2018-02-04T06:35:57.245Z,19.61
2018-02-04T06:38:28.463Z,19.85
2018-02-04T06:40:59.496Z,19.22
2018-02-04T06:43:30.472Z,19.87
2018-02-04T06:46:01.525Z,18.89
2018-02-04T06:48:32.520Z,19.14
2018-02-04T06:51:03.604Z,19.51
2018-02-04T06:53:34.571Z,19.07
2018-02-04T06:56:05.324Z,19.72
2018-02-04T06:58:36.322Z,19.47
2018-02-04T07:01:07.552Z,19.60
2018-02-04T07:03:38.810Z,19.67
2018-02-04T07:06:10.350Z,19.44
2018-02-04T07:08:41.700Z,19.56
2018-02-04T07:11:12.782Z,19.73
2018-02-04T07:13:44.433Z,19.65
2018-02-04T07:16:15.721Z,19.18
2018-02-04T07:18:47.147Z,19.13
2018-02-04T07:21:18.430Z,18.50
2018-02-04T07:23:49.784Z,19.59
2018-02-04T07:26:20.748Z,19.55
2018-02-04T07:28:51.835Z,18.75
2018-02-04T07:31:23.088Z,18.48
2018-02-04T07:33:54.194Z,18.52
2018-02-04T07:36:25.540Z,18.49
2018-02-04T07:38:56.674Z,19.04
2018-02-04T07:41:27.783Z,18.16
2018-02-04T07:43:58.728Z,18.85
2018-02-04T07:46:29.562Z,18.07
2018-02-04T07:49:00.788Z,18.68
2018-02-04T07:51:31.703Z,18.32
2018-02-04T07:54:02.689Z,18.79
2018-02-04T07:56:33.266Z,17.89
2018-02-04T07:59:04.612Z,18.21
2018-02-04T08:01:35.741Z,18.46
2018-02-04T08:04:06.796Z,18.28
2018-02-04T08:06:38.058Z,18.43
2018-02-04T08:09:09.164Z,18.82
2018-02-04T08:11:40.506Z,19.09
2018-02-04T08:14:11.659Z,18.92
2018-02-04T08:16:42.826Z,19.28
2018-02-04T08:19:13.945Z,19.64
2018-02-04T08:21:44.804Z,18.87
2018-02-04T08:24:15.829Z,19.20
2018-02-04T08:26:47.185Z,18.26
2018-02-04T08:29:18.521Z,19.12
2018-02-04T08:31:49.840Z,18.12
2018-02-04T08:34:20.988Z,17.59
2018-02-04T08:36:52.197Z,17.38
2018-02-04T08:39:23.308Z,17.12
2018-02-04T08:41:54.650Z,17.11
2018-02-04T08:44:25.892Z,17.78
2018-02-04T08:46:56.732Z,17.59
2018-02-04T08:49:27.836Z,17.67
2018-02-04T08:51:58.710Z,17.50
2018-02-04T08:54:30.009Z,17.59
2018-02-04T08:57:01.133Z,16.97
2018-02-04T08:59:32.265Z,17.53
2018-02-04T09:02:03.385Z,17.92
2018-02-04T09:04:34.294Z,18.34
2018-02-04T09:07:05.196Z,18.43
2018-02-04T09:09:36.510Z,17.92
2018-02-04T09:12:07.556Z,18.59
2018-02-04T09:14:38.737Z,18.68
2018-02-04T09:17:09.477Z,17.51
2018-02-04T09:19:40.774Z,18.55
2018-02-04T09:22:11.889Z,17.60
2018-02-04T09:24:42.870Z,17.20
2018-02-04T09:27:13.970Z,17.13
2018-02-04T09:29:45.074Z,17.10
2018-02-04T09:32:16.121Z,17.60
2018-02-04T09:34:47.244Z,18.25
2018-02-04T09:37:18.854Z,18.53
2018-02-04T09:39:49.753Z,17.51
2018-02-04T09:42:20.852Z,17.30
2018-02-04T09:44:52.775Z,17.04
2018-02-04T09:47:23.805Z,17.98
2018-02-04T09:49:54.885Z,17.79
2018-02-04T09:52:26.089Z,17.12
2018-02-04T09:54:57.416Z,17.96
2018-02-04T09:57:28.713Z,18.21
2018-02-04T09:59:59.933Z,17.16
2018-02-04T10:02:30.966Z,17.16
2018-02-04T10:05:01.810Z,17.65
2018-02-04T10:07:32.730Z,17.27
2018-02-04T10:10:03.821Z,16.59
2018-02-04T10:12:34.798Z,17.75
2018-02-04T10:15:05.760Z,17.58
2018-02-04T10:17:36.638Z,17.87
2018-02-04T10:20:07.614Z,16.77
2018-02-04T10:22:38.516Z,17.27
2018-02-04T10:25:09.520Z,17.95
2018-02-04T10:27:40.705Z,17.25
2018-02-04T10:30:12.190Z,16.43
2018-02-04T10:32:43.091Z,16.47
2018-02-04T10:35:13.877Z,16.68
2018-02-04T10:37:44.973Z,16.40
2018-02-04T10:40:16.355Z,16.59
2018-02-04T10:42:47.212Z,17.28
2018-02-04T10:45:18.215Z,16.39
2018-02-04T10:47:49.841Z,17.16
2018-02-04T10:50:21.209Z,17.84
2018-02-04T10:52:52.496Z,16.86
2018-02-04T10:55:23.667Z,16.54
2018-02-04T10:57:54.573Z,17.30
2018-02-04T11:00:25.995Z,17.81
2018-02-04T11:02:57.566Z,17.49
2018-02-04T11:05:28.766Z,17.42
2018-02-04T11:07:59.745Z,15.78
2018-02-04T11:10:30.920Z,15.69
2018-02-04T11:13:02.101Z,16.50
2018-02-04T11:15:33.452Z,17.27
2018-02-04T11:18:04.698Z,16.79
2018-02-04T11:20:35.708Z,16.92
2018-02-04T11:23:06.781Z,17.09
2018-02-04T11:25:37.788Z,17.32
2018-02-04T11:28:08.774Z,16.49
2018-02-04T11:30:40.304Z,16.28
2018-02-04T11:33:11.242Z,16.09
2018-02-04T11:35:42.905Z,16.84
2018-02-04T11:38:13.530Z,16.37
2018-02-04T11:40:44.646Z,16.04
2018-02-04T11:43:15.407Z,15.34
2018-02-04T11:45:46.969Z,15.30
2018-02-04T11:48:18.229Z,16.54
2018-02-04T11:50:49.193Z,16.64
2018-02-04T11:53:20.727Z,17.04
2018-02-04T11:55:52.098Z,15.98
2018-02-04T11:58:23.271Z,16.40
2018-02-04T12:00:54.615Z,15.96
2018-02-04T12:03:25.703Z,15.39
2018-02-04T12:05:57.069Z,15.63
2018-02-04T12:08:28.392Z,16.12
2018-02-04T12:10:59.278Z,16.57
2018-02-04T12:13:30.717Z,16.38
2018-02-04T12:16:01.604Z,16.38
2018-02-04T12:18:32.593Z,15.84
2018-02-04T12:21:03.698Z,15.73
2018-02-04T12:23:34.889Z,15.76
2018-02-04T12:26:05.997Z,15.26
2018-02-04T12:28:36.919Z,14.71
2018-02-04T12:31:07.842Z,16.42
2018-02-04T12:33:38.838Z,16.01
2018-02-04T12:36:09.956Z,16.87
2018-02-04T12:38:41.218Z,15.32
2018-02-04T12:41:12.901Z,16.16
2018-02-04T12:43:44.458Z,16.13
2018-02-04T12:46:15.716Z,16.01
2018-02-04T12:48:46.785Z,15.52
2018-02-04T12:51:18.321Z,15.02
2018-02-04T12:53:50.048Z,15.21
2018-02-04T12:56:21.633Z,15.64
2018-02-04T12:58:53.087Z,15.48
2018-02-04T13:01:23.898Z,16.12
2018-02-04T13:03:55.600Z,15.07
2018-02-04T13:06:26.560Z,15.49
2018-02-04T13:08:57.658Z,15.35
2018-02-04T13:11:29.088Z,15.45
2018-02-04T13:14:00.525Z,15.67
2018-02-04T13:16:31.588Z,15.25
2018-02-04T13:19:02.536Z,15.14
2018-02-04T13:21:33.690Z,15.34
2018-02-04T13:24:05.222Z,15.06
2018-02-04T13:26:36.146Z,15.43
2018-02-04T13:29:07.076Z,14.91
2018-02-04T13:31:38.261Z,14.54
2018-02-04T13:34:09.136Z,15.42
2018-02-04T13:36:40.131Z,14.66
2018-02-04T13:39:11.539Z,14.55
2018-02-04T13:41:42.392Z,14.69
2018-02-04T13:44:13.494Z,14.27
2018-02-04T13:46:44.577Z,14.50
2018-02-04T13:49:15.758Z,14.67
2018-02-04T13:51:46.776Z,14.60
2018-02-04T13:54:17.911Z,13.94
2018-02-04T13:56:49.292Z,13.86
2018-02-04T13:59:21.025Z,15.22
2018-02-04T14:01:52.346Z,14.79
2018-02-04T14:04:23.656Z,15.20
2018-02-04T14:06:55.060Z,15.42
2018-02-04T14:09:26.621Z,15.27
2018-02-04T14:11:57.724Z,16.05
2018-02-04T14:14:29.158Z,15.65
2018-02-04T14:17:00.505Z,16.31
2018-02-04T14:19:31.856Z,16.10
2018-02-04T14:22:02.748Z,16.13
2018-02-04T14:24:34.346Z,14.73
2018-02-04T14:27:05.878Z,14.58
2018-02-04T14:29:36.768Z,14.44
2018-02-04T14:32:07.956Z,13.83
2018-02-04T14:34:39.926Z,13.84
2018-02-04T14:37:11.471Z,14.14
2018-02-04T14:39:42.576Z,14.00
2018-02-04T14:42:13.537Z,13.82
2018-02-04T14:44:44.669Z,14.01
2018-02-04T14:47:15.854Z,13.97
2018-02-04T14:49:47.000Z,14.79
2018-02-04T14:52:18.358Z,14.33
2018-02-04T14:54:49.724Z,14.09
2018-02-04T14:57:21.036Z,15.51
2018-02-04T14:59:53.860Z,15.57
2018-02-04T15:02:25.732Z,14.87
2018-02-04T15:04:56.468Z,15.63
2018-02-04T15:07:27.875Z,14.88
2018-02-04T15:09:58.749Z,15.49
2018-02-04T15:12:29.930Z,16.00
2018-02-04T15:15:00.926Z,15.49
2018-02-04T15:17:32.200Z,15.81
2018-02-04T15:20:03.392Z,15.84
2018-02-04T15:22:34.447Z,16.23
2018-02-04T15:25:05.244Z,16.01
2018-02-04T15:27:36.311Z,16.03
2018-02-04T15:30:07.041Z,15.37
2018-02-04T15:32:38.075Z,15.76
2018-02-04T15:35:09.029Z,15.57
2018-02-04T15:37:40.861Z,15.86
2018-02-04T15:40:11.857Z,15.38
2018-02-04T15:42:43.252Z,15.84
2018-02-04T15:45:14.392Z,16.32
2018-02-04T15:47:45.556Z,16.42
2018-02-04T15:50:16.596Z,16.62
2018-02-04T15:52:47.845Z,16.31
2018-02-04T15:55:19.181Z,16.40
2018-02-04T15:57:50.050Z,16.62
2018-02-04T16:00:22.097Z,16.65
2018-02-04T16:02:53.660Z,16.15
2018-02-04T16:05:24.791Z,15.70
2018-02-04T16:07:55.919Z,15.15
2018-02-04T16:10:27.072Z,15.13
2018-02-04T16:12:58.118Z,15.23
2018-02-04T16:15:29.374Z,15.97
2018-02-04T16:18:00.752Z,15.48
2018-02-04T16:20:32.252Z,15.26
2018-02-04T16:23:03.715Z,15.51
2018-02-04T16:25:35.081Z,15.66
2018-02-04T16:28:06.952Z,15.61
2018-02-04T16:30:38.081Z,16.53
2018-02-04T16:33:08.600Z,16.47
2018-02-04T16:35:39.617Z,16.63
2018-02-04T16:38:10.584Z,16.71
2018-02-04T16:40:41.617Z,17.36
2018-02-04T16:43:13.112Z,16.99
2018-02-04T16:45:44.389Z,17.07
2018-02-04T16:48:15.343Z,17.72
2018-02-04T16:50:46.405Z,18.22
2018-02-04T16:53:18.044Z,17.94
2018-02-04T16:55:49.122Z,17.75
2018-02-04T16:58:20.240Z,17.74
2018-02-04T17:00:51.385Z,18.63
2018-02-04T17:03:22.643Z,18.42
2018-02-04T17:05:53.674Z,18.11
2018-02-04T17:08:25.008Z,18.13
2018-02-04T17:10:56.374Z,18.85
2018-02-04T17:13:27.514Z,18.78
2018-02-04T17:15:58.564Z,18.67
2018-02-04T17:18:29.765Z,19.15
2018-02-04T17:21:01.298Z,19.36
2018-02-04T17:23:32.620Z,18.82
2018-02-04T17:26:03.601Z,18.77
2018-02-04T17:28:35.207Z,19.43
2018-02-04T17:31:06.298Z,19.34
2018-02-04T17:33:37.293Z,19.78
2018-02-04T17:36:08.857Z,20.42
2018-02-04T17:38:40.173Z,20.72
2018-02-04T17:41:11.778Z,20.82
2018-02-04T17:43:43.247Z,20.96
2018-02-04T17:46:14.203Z,21.59
2018-02-04T17:48:46.268Z,21.85
2018-02-04T17:51:17.927Z,21.84
2018-02-04T17:53:49.696Z,21.82
2018-02-04T17:56:21.355Z,22.21
2018-02-04T17:58:52.663Z,22.68
2018-02-04T18:01:24.774Z,23.15
2018-02-04T18:03:55.944Z,23.47
2018-02-04T18:06:27.261Z,23.93
2018-02-04T18:08:58.592Z,24.29
2018-02-04T18:11:29.768Z,23.93
2018-02-04T18:14:00.876Z,23.59
2018-02-04T18:16:32.212Z,23.55
2018-02-04T18:19:03.453Z,23.52
2018-02-04T18:21:34.592Z,23.69
2018-02-04T18:24:05.898Z,23.76
